sensor_id;sensor_type;location;lat;lon;timestamp;pressure;altitude;pressure_sealevel;temperature;humidity
52719;BME280;38616;42.140;24.760;2023-07-08T00:00:43;99439.59;;;25.23;50.91
52719;BME280;38616;42.140;24.760;2023-07-08T00:03:09;99441.63;;;25.30;50.43
52719;BME280;38616;42.140;24.760;2023-07-08T00:05:35;99436.75;;;25.20;50.61
52719;BME280;38616;42.140;24.760;2023-07-08T00:08:01;99439.38;;;25.02;50.76
52719;BME280;38616;42.140;24.760;2023-07-08T00:10:28;99434.25;;;25.04;50.83
52719;BME280;38616;42.140;24.760;2023-07-08T00:12:55;99433.69;;;24.87;51.14
52719;BME280;38616;42.140;24.760;2023-07-08T00:15:24;99437.28;;;24.88;51.05
52719;BME280;38616;42.140;24.760;2023-07-08T00:17:50;99431.75;;;24.91;50.88
52719;BME280;38616;42.140;24.760;2023-07-08T00:20:22;99445.91;;;24.79;51.24
52719;BME280;38616;42.140;24.760;2023-07-08T00:22:48;99429.25;;;24.79;50.82
52719;BME280;38616;42.140;24.760;2023-07-08T00:25:17;99439.88;;;25.11;50.21
52719;BME280;38616;42.140;24.760;2023-07-08T00:27:47;99434.53;;;24.91;50.48
52719;BME280;38616;42.140;24.760;2023-07-08T00:30:31;99433.28;;;24.85;50.54
52719;BME280;38616;42.140;24.760;2023-07-08T00:32:58;99435.22;;;25.22;49.78
52719;BME280;38616;42.140;24.760;2023-07-08T00:35:34;99433.78;;;25.43;49.08
52719;BME280;38616;42.140;24.760;2023-07-08T00:38:01;99435.75;;;24.94;50.37
52719;BME280;38616;42.140;24.760;2023-07-08T00:40:32;99430.06;;;24.83;50.59
52719;BME280;38616;42.140;24.760;2023-07-08T00:43:03;99432.50;;;24.88;50.59
52719;BME280;38616;42.140;24.760;2023-07-08T00:46:00;99442.84;;;24.88;50.86
52719;BME280;38616;42.140;24.760;2023-07-08T00:48:30;99440.41;;;24.83;50.63
52719;BME280;38616;42.140;24.760;2023-07-08T00:50:58;99451.88;;;24.47;51.52
52719;BME280;38616;42.140;24.760;2023-07-08T00:53:30;99455.25;;;24.63;51.49
52719;BME280;38616;42.140;24.760;2023-07-08T00:56:26;99456.72;;;24.88;50.80
52719;BME280;38616;42.140;24.760;2023-07-08T00:58:58;99462.53;;;24.75;51.03
52719;BME280;38616;42.140;24.760;2023-07-08T01:01:25;99459.50;;;24.54;51.59
52719;BME280;38616;42.140;24.760;2023-07-08T01:04:00;99460.72;;;24.56;51.64
52719;BME280;38616;42.140;24.760;2023-07-08T01:06:28;99457.28;;;24.67;51.78
52719;BME280;38616;42.140;24.760;2023-07-08T01:09:02;99450.28;;;24.46;52.03
52719;BME280;38616;42.140;24.760;2023-07-08T01:11:31;99454.84;;;24.31;52.18
52719;BME280;38616;42.140;24.760;2023-07-08T01:13:59;99467.41;;;24.21;52.42
52719;BME280;38616;42.140;24.760;2023-07-08T01:16:26;99470.69;;;24.27;52.46
52719;BME280;38616;42.140;24.760;2023-07-08T01:18:52;99464.50;;;24.10;52.59
52719;BME280;38616;42.140;24.760;2023-07-08T01:21:36;99478.91;;;24.19;52.79
52719;BME280;38616;42.140;24.760;2023-07-08T01:24:05;99472.94;;;23.90;53.51
52719;BME280;38616;42.140;24.760;2023-07-08T01:26:33;99467.19;;;24.03;52.94
52719;BME280;38616;42.140;24.760;2023-07-08T01:28:59;99466.03;;;24.08;52.90
52719;BME280;38616;42.140;24.760;2023-07-08T01:31:25;99472.09;;;23.90;53.19
52719;BME280;38616;42.140;24.760;2023-07-08T01:33:52;99471.13;;;24.02;53.10
52719;BME280;38616;42.140;24.760;2023-07-08T01:36:18;99468.16;;;24.18;52.32
52719;BME280;38616;42.140;24.760;2023-07-08T01:38:44;99464.53;;;24.14;52.61
52719;BME280;38616;42.140;24.760;2023-07-08T01:41:15;99474.75;;;24.06;52.41
52719;BME280;38616;42.140;24.760;2023-07-08T01:43:40;99473.94;;;24.05;52.62
52719;BME280;38616;42.140;24.760;2023-07-08T01:46:20;99466.47;;;24.10;52.44
52719;BME280;38616;42.140;24.760;2023-07-08T01:48:56;99471.00;;;23.95;52.69
52719;BME280;38616;42.140;24.760;2023-07-08T01:51:25;99475.53;;;24.07;52.66
52719;BME280;38616;42.140;24.760;2023-07-08T01:53:52;99465.63;;;23.79;53.02
52719;BME280;38616;42.140;24.760;2023-07-08T01:56:17;99471.03;;;23.98;52.32
52719;BME280;38616;42.140;24.760;2023-07-08T01:58:43;99481.28;;;23.94;52.80
52719;BME280;38616;42.140;24.760;2023-07-08T02:01:09;99488.03;;;24.20;52.23
52719;BME280;38616;42.140;24.760;2023-07-08T02:03:35;99485.22;;;24.16;52.30
52719;BME280;38616;42.140;24.760;2023-07-08T02:06:01;99480.28;;;23.79;52.90
52719;BME280;38616;42.140;24.760;2023-07-08T02:08:26;99482.63;;;23.77;53.04
52719;BME280;38616;42.140;24.760;2023-07-08T02:10:53;99494.50;;;23.51;53.49
52719;BME280;38616;42.140;24.760;2023-07-08T02:13:20;99493.31;;;23.52;53.93
52719;BME280;38616;42.140;24.760;2023-07-08T02:15:46;99501.44;;;23.64;52.84
52719;BME280;38616;42.140;24.760;2023-07-08T02:18:12;99485.88;;;23.56;53.33
52719;BME280;38616;42.140;24.760;2023-07-08T02:20:38;99491.41;;;23.56;53.33
52719;BME280;38616;42.140;24.760;2023-07-08T02:23:03;99501.25;;;23.53;53.33
52719;BME280;38616;42.140;24.760;2023-07-08T02:25:29;99504.53;;;23.59;53.14
52719;BME280;38616;42.140;24.760;2023-07-08T02:27:54;99504.72;;;23.46;53.70
52719;BME280;38616;42.140;24.760;2023-07-08T02:30:23;99499.63;;;23.49;53.65
52719;BME280;38616;42.140;24.760;2023-07-08T02:32:48;99499.66;;;23.52;53.28
52719;BME280;38616;42.140;24.760;2023-07-08T02:35:26;99510.31;;;23.73;53.04
52719;BME280;38616;42.140;24.760;2023-07-08T02:37:53;99508.41;;;23.78;52.62
52719;BME280;38616;42.140;24.760;2023-07-08T02:40:19;99509.63;;;23.80;52.55
52719;BME280;38616;42.140;24.760;2023-07-08T02:42:45;99506.84;;;23.80;52.80
52719;BME280;38616;42.140;24.760;2023-07-08T02:45:11;99515.75;;;23.66;52.89
52719;BME280;38616;42.140;24.760;2023-07-08T02:47:39;99518.69;;;23.77;52.50
52719;BME280;38616;42.140;24.760;2023-07-08T02:50:09;99520.78;;;23.60;52.76
52719;BME280;38616;42.140;24.760;2023-07-08T02:52:35;99526.34;;;23.37;53.41
52719;BME280;38616;42.140;24.760;2023-07-08T02:55:00;99522.66;;;23.53;53.40
52719;BME280;38616;42.140;24.760;2023-07-08T02:57:26;99522.66;;;23.53;52.77
52719;BME280;38616;42.140;24.760;2023-07-08T02:59:51;99535.91;;;23.63;53.18
52719;BME280;38616;42.140;24.760;2023-07-08T03:02:17;99537.81;;;23.59;52.73
52719;BME280;38616;42.140;24.760;2023-07-08T03:04:42;99533.63;;;23.45;52.75
52719;BME280;38616;42.140;24.760;2023-07-08T03:07:08;99540.59;;;23.36;53.29
52719;BME280;38616;42.140;24.760;2023-07-08T03:09:40;99543.09;;;23.44;53.15
52719;BME280;38616;42.140;24.760;2023-07-08T03:12:07;99534.47;;;23.50;53.11
52719;BME280;38616;42.140;24.760;2023-07-08T03:14:33;99542.47;;;23.55;52.65
52719;BME280;38616;42.140;24.760;2023-07-08T03:16:58;99542.66;;;23.66;52.59
52719;BME280;38616;42.140;24.760;2023-07-08T03:19:24;99548.72;;;23.71;52.23
52719;BME280;38616;42.140;24.760;2023-07-08T03:21:52;99545.97;;;23.75;51.94
52719;BME280;38616;42.140;24.760;2023-07-08T03:24:18;99536.91;;;24.01;51.39
52719;BME280;38616;42.140;24.760;2023-07-08T03:26:45;99547.56;;;23.99;51.43
52719;BME280;38616;42.140;24.760;2023-07-08T03:29:20;99552.38;;;24.02;51.37
52719;BME280;38616;42.140;24.760;2023-07-08T03:31:46;99558.59;;;23.49;52.38
52719;BME280;38616;42.140;24.760;2023-07-08T03:34:13;99565.97;;;23.61;52.37
52719;BME280;38616;42.140;24.760;2023-07-08T03:36:46;99561.16;;;23.58;52.52
52719;BME280;38616;42.140;24.760;2023-07-08T03:39:19;99559.19;;;23.82;51.77
52719;BME280;38616;42.140;24.760;2023-07-08T03:41:45;99569.84;;;23.80;51.68
52719;BME280;38616;42.140;24.760;2023-07-08T03:44:11;99590.78;;;23.30;52.83
52719;BME280;38616;42.140;24.760;2023-07-08T03:46:42;99585.34;;;23.38;53.44
52719;BME280;38616;42.140;24.760;2023-07-08T03:49:09;99585.34;;;23.38;53.03
52719;BME280;38616;42.140;24.760;2023-07-08T03:51:37;99586.16;;;23.61;52.78
52719;BME280;38616;42.140;24.760;2023-07-08T03:54:04;99581.66;;;23.53;52.55
52719;BME280;38616;42.140;24.760;2023-07-08T03:56:30;99577.78;;;23.58;52.36
52719;BME280;38616;42.140;24.760;2023-07-08T03:58:55;99583.91;;;23.24;53.27
52719;BME280;38616;42.140;24.760;2023-07-08T04:01:23;99600.06;;;23.42;53.31
52719;BME280;38616;42.140;24.760;2023-07-08T04:03:49;99602.28;;;23.33;53.49
52719;BME280;38616;42.140;24.760;2023-07-08T04:06:15;99602.94;;;23.26;53.14
52719;BME280;38616;42.140;24.760;2023-07-08T04:08:43;99610.03;;;23.23;53.38
52719;BME280;38616;42.140;24.760;2023-07-08T04:11:14;99613.78;;;23.15;53.84
52719;BME280;38616;42.140;24.760;2023-07-08T04:13:40;99613.63;;;23.47;53.29
52719;BME280;38616;42.140;24.760;2023-07-08T04:16:07;99598.94;;;23.66;52.46
52719;BME280;38616;42.140;24.760;2023-07-08T04:18:39;99597.13;;;23.78;52.03
52719;BME280;38616;42.140;24.760;2023-07-08T04:21:05;99600.03;;;24.08;51.21
52719;BME280;38616;42.140;24.760;2023-07-08T04:23:31;99609.41;;;23.76;52.13
52719;BME280;38616;42.140;24.760;2023-07-08T04:25:57;99616.31;;;24.10;51.86
52719;BME280;38616;42.140;24.760;2023-07-08T04:28:23;99613.94;;;24.12;51.13
52719;BME280;38616;42.140;24.760;2023-07-08T04:30:48;99609.63;;;23.68;52.43
52719;BME280;38616;42.140;24.760;2023-07-08T04:33:14;99599.06;;;23.73;52.54
52719;BME280;38616;42.140;24.760;2023-07-08T04:35:41;99596.56;;;24.15;51.42
52719;BME280;38616;42.140;24.760;2023-07-08T04:38:20;99588.19;;;24.38;50.67
52719;BME280;38616;42.140;24.760;2023-07-08T04:40:47;99586.94;;;24.62;50.79
52719;BME280;38616;42.140;24.760;2023-07-08T04:43:12;99584.75;;;24.75;49.95
52719;BME280;38616;42.140;24.760;2023-07-08T04:45:39;99586.97;;;24.66;50.22
52719;BME280;38616;42.140;24.760;2023-07-08T04:48:05;99580.97;;;24.33;50.72
52719;BME280;38616;42.140;24.760;2023-07-08T04:50:40;99572.34;;;24.39;50.94
52719;BME280;38616;42.140;24.760;2023-07-08T04:53:05;99570.97;;;24.56;50.51
52719;BME280;38616;42.140;24.760;2023-07-08T04:55:31;99570.72;;;24.38;50.53
52719;BME280;38616;42.140;24.760;2023-07-08T04:57:56;99573.56;;;24.14;51.13
52719;BME280;38616;42.140;24.760;2023-07-08T05:00:24;99573.03;;;23.82;51.97
52719;BME280;38616;42.140;24.760;2023-07-08T05:02:49;99573.22;;;24.46;50.95
52719;BME280;38616;42.140;24.760;2023-07-08T05:05:15;99567.72;;;24.50;50.08
52719;BME280;38616;42.140;24.760;2023-07-08T05:07:40;99561.56;;;24.07;50.89
52719;BME280;38616;42.140;24.760;2023-07-08T05:10:06;99556.75;;;24.03;51.40
52719;BME280;38616;42.140;24.760;2023-07-08T05:12:31;99569.84;;;24.03;51.17
52719;BME280;38616;42.140;24.760;2023-07-08T05:14:57;99568.38;;;24.13;50.78
52719;BME280;38616;42.140;24.760;2023-07-08T05:17:22;99568.09;;;24.48;50.40
52719;BME280;38616;42.140;24.760;2023-07-08T05:19:50;99571.69;;;24.49;50.24
52719;BME280;38616;42.140;24.760;2023-07-08T05:22:16;99574.47;;;24.22;50.72
52719;BME280;38616;42.140;24.760;2023-07-08T05:24:43;99573.25;;;23.96;51.50
52719;BME280;38616;42.140;24.760;2023-07-08T05:27:08;99564.06;;;24.15;51.57
52719;BME280;38616;42.140;24.760;2023-07-08T05:29:33;99568.34;;;24.67;49.95
52719;BME280;38616;42.140;24.760;2023-07-08T05:31:59;99563.13;;;24.61;49.86
52719;BME280;38616;42.140;24.760;2023-07-08T05:34:27;99570.19;;;24.55;50.01
52719;BME280;38616;42.140;24.760;2023-07-08T05:36:53;99572.25;;;24.62;49.54
52719;BME280;38616;42.140;24.760;2023-07-08T05:39:18;99571.41;;;24.88;49.88
52719;BME280;38616;42.140;24.760;2023-07-08T05:41:43;99557.81;;;24.22;50.12
52719;BME280;38616;42.140;24.760;2023-07-08T05:44:08;99561.63;;;24.10;51.07
52719;BME280;38616;42.140;24.760;2023-07-08T05:46:34;99550.25;;;24.49;50.49
52719;BME280;38616;42.140;24.760;2023-07-08T05:48:59;99541.16;;;24.79;49.30
52719;BME280;38616;42.140;24.760;2023-07-08T05:51:24;99546.63;;;24.72;49.34
52719;BME280;38616;42.140;24.760;2023-07-08T05:53:53;99546.78;;;24.87;48.82
52719;BME280;38616;42.140;24.760;2023-07-08T05:56:18;99553.00;;;24.73;49.27
52719;BME280;38616;42.140;24.760;2023-07-08T05:58:43;99543.03;;;25.06;48.42
52719;BME280;38616;42.140;24.760;2023-07-08T06:01:08;99552.53;;;24.71;48.68
52719;BME280;38616;42.140;24.760;2023-07-08T06:03:34;99543.13;;;24.79;49.08
52719;BME280;38616;42.140;24.760;2023-07-08T06:05:59;99539.50;;;25.09;48.03
52719;BME280;38616;42.140;24.760;2023-07-08T06:08:26;99549.72;;;25.39;47.06
52719;BME280;38616;42.140;24.760;2023-07-08T06:10:52;99547.94;;;25.20;47.46
52719;BME280;38616;42.140;24.760;2023-07-08T06:13:18;99546.91;;;24.98;47.65
52719;BME280;38616;42.140;24.760;2023-07-08T06:15:43;99542.59;;;25.00;48.14
52719;BME280;38616;42.140;24.760;2023-07-08T06:18:08;99540.41;;;24.83;47.92
52719;BME280;38616;42.140;24.760;2023-07-08T06:20:34;99542.59;;;24.70;48.26
52719;BME280;38616;42.140;24.760;2023-07-08T06:22:59;99542.09;;;24.94;47.37
52719;BME280;38616;42.140;24.760;2023-07-08T06:25:24;99553.09;;;24.53;48.31
52719;BME280;38616;42.140;24.760;2023-07-08T06:27:50;99550.59;;;24.75;48.27
52719;BME280;38616;42.140;24.760;2023-07-08T06:30:15;99544.16;;;24.67;48.69
52719;BME280;38616;42.140;24.760;2023-07-08T06:32:40;99544.38;;;24.85;48.22
52719;BME280;38616;42.140;24.760;2023-07-08T06:35:05;99535.34;;;24.92;48.11
52719;BME280;38616;42.140;24.760;2023-07-08T06:37:31;99529.06;;;24.99;47.69
52719;BME280;38616;42.140;24.760;2023-07-08T06:39:56;99533.06;;;25.43;47.17
52719;BME280;38616;42.140;24.760;2023-07-08T06:42:21;99532.56;;;25.75;46.62
52719;BME280;38616;42.140;24.760;2023-07-08T06:44:47;99538.19;;;25.82;46.68
52719;BME280;38616;42.140;24.760;2023-07-08T06:47:16;99542.69;;;25.49;45.69
52719;BME280;38616;42.140;24.760;2023-07-08T06:49:41;99539.22;;;25.21;46.42
52719;BME280;38616;42.140;24.760;2023-07-08T06:52:06;99538.78;;;25.54;45.96
52719;BME280;38616;42.140;24.760;2023-07-08T06:54:32;99544.53;;;25.79;45.21
52719;BME280;38616;42.140;24.760;2023-07-08T06:56:57;99542.13;;;25.77;45.29
52719;BME280;38616;42.140;24.760;2023-07-08T06:59:22;99540.41;;;25.62;45.98
52719;BME280;38616;42.140;24.760;2023-07-08T07:01:48;99541.84;;;25.45;45.58
52719;BME280;38616;42.140;24.760;2023-07-08T07:04:13;99545.25;;;25.72;45.52
52719;BME280;38616;42.140;24.760;2023-07-08T07:06:38;99542.75;;;26.08;44.27
52719;BME280;38616;42.140;24.760;2023-07-08T07:09:03;99554.41;;;25.73;44.09
52719;BME280;38616;42.140;24.760;2023-07-08T07:11:29;99583.28;;;25.57;44.48
52719;BME280;38616;42.140;24.760;2023-07-08T07:13:54;99552.66;;;25.54;44.34
52719;BME280;38616;42.140;24.760;2023-07-08T07:16:19;99564.16;;;25.48;44.88
52719;BME280;38616;42.140;24.760;2023-07-08T07:18:44;99557.16;;;25.69;44.74
52719;BME280;38616;42.140;24.760;2023-07-08T07:21:10;99565.44;;;26.10;44.31
52719;BME280;38616;42.140;24.760;2023-07-08T07:23:35;99565.09;;;26.16;43.03
52719;BME280;38616;42.140;24.760;2023-07-08T07:26:00;99567.72;;;25.98;43.72
52719;BME280;38616;42.140;24.760;2023-07-08T07:28:26;99569.22;;;25.88;44.20
52719;BME280;38616;42.140;24.760;2023-07-08T07:30:57;99577.03;;;25.71;44.25
52719;BME280;38616;42.140;24.760;2023-07-08T07:33:23;99579.66;;;25.49;44.74
52719;BME280;38616;42.140;24.760;2023-07-08T07:35:48;99582.88;;;25.21;45.71
52719;BME280;38616;42.140;24.760;2023-07-08T07:38:14;99576.94;;;25.57;45.20
52719;BME280;38616;42.140;24.760;2023-07-08T07:40:39;99623.63;;;25.40;45.08
52719;BME280;38616;42.140;24.760;2023-07-08T07:43:05;99597.19;;;25.19;45.78
52719;BME280;38616;42.140;24.760;2023-07-08T07:45:30;99584.06;;;25.20;45.95
52719;BME280;38616;42.140;24.760;2023-07-08T07:47:55;99589.69;;;25.65;45.87
52719;BME280;38616;42.140;24.760;2023-07-08T07:50:20;99575.25;;;25.97;44.51
52719;BME280;38616;42.140;24.760;2023-07-08T07:52:46;99582.78;;;25.89;44.31
52719;BME280;38616;42.140;24.760;2023-07-08T07:55:11;99612.91;;;25.80;44.28
52719;BME280;38616;42.140;24.760;2023-07-08T07:57:36;99590.09;;;25.63;44.19
52719;BME280;38616;42.140;24.760;2023-07-08T08:00:02;99584.91;;;25.62;44.39
52719;BME280;38616;42.140;24.760;2023-07-08T08:02:27;99591.63;;;26.06;43.73
52719;BME280;38616;42.140;24.760;2023-07-08T08:04:52;99586.09;;;26.09;43.40
52719;BME280;38616;42.140;24.760;2023-07-08T08:07:17;99600.28;;;25.93;43.79
52719;BME280;38616;42.140;24.760;2023-07-08T08:09:43;99591.06;;;25.86;43.74
52719;BME280;38616;42.140;24.760;2023-07-08T08:12:09;99599.28;;;26.16;43.52
52719;BME280;38616;42.140;24.760;2023-07-08T08:14:35;99601.22;;;26.12;42.67
52719;BME280;38616;42.140;24.760;2023-07-08T08:17:00;99609.22;;;26.14;42.14
52719;BME280;38616;42.140;24.760;2023-07-08T08:19:25;99591.91;;;26.38;42.02
52719;BME280;38616;42.140;24.760;2023-07-08T08:21:51;99607.06;;;26.48;42.21
52719;BME280;38616;42.140;24.760;2023-07-08T08:24:16;99590.66;;;26.36;42.12
52719;BME280;38616;42.140;24.760;2023-07-08T08:26:41;99586.38;;;26.53;41.81
52719;BME280;38616;42.140;24.760;2023-07-08T08:29:07;99597.91;;;26.48;41.25
52719;BME280;38616;42.140;24.760;2023-07-08T08:31:32;99589.16;;;26.46;42.04
52719;BME280;38616;42.140;24.760;2023-07-08T08:33:59;99603.03;;;26.38;42.20
52719;BME280;38616;42.140;24.760;2023-07-08T08:36:24;99592.44;;;26.69;41.96
52719;BME280;38616;42.140;24.760;2023-07-08T08:38:49;99589.84;;;27.06;40.77
52719;BME280;38616;42.140;24.760;2023-07-08T08:41:16;99612.47;;;26.97;40.42
52719;BME280;38616;42.140;24.760;2023-07-08T08:43:41;99590.22;;;27.11;40.41
52719;BME280;38616;42.140;24.760;2023-07-08T08:49:30;99608.97;;;27.11;40.28
52719;BME280;38616;42.140;24.760;2023-07-08T08:51:35;99595.88;;;27.29;40.09
52719;BME280;38616;42.140;24.760;2023-07-08T08:54:00;99614.22;;;27.45;39.36
52719;BME280;38616;42.140;24.760;2023-07-08T08:56:28;99600.31;;;27.52;39.03
52719;BME280;38616;42.140;24.760;2023-07-08T08:58:58;99616.59;;;27.39;38.77
52719;BME280;38616;42.140;24.760;2023-07-08T09:01:27;99605.00;;;27.19;39.04
52719;BME280;38616;42.140;24.760;2023-07-08T09:03:56;99609.03;;;27.40;38.76
52719;BME280;38616;42.140;24.760;2023-07-08T09:06:26;99617.69;;;27.02;39.37
52719;BME280;38616;42.140;24.760;2023-07-08T09:08:52;99616.09;;;27.05;39.60
52719;BME280;38616;42.140;24.760;2023-07-08T09:13:42;99605.00;;;27.19;39.92
52719;BME280;38616;42.140;24.760;2023-07-08T09:16:14;99605.91;;;27.49;38.67
52719;BME280;38616;42.140;24.760;2023-07-08T09:18:43;99604.66;;;27.46;38.94
52719;BME280;38616;42.140;24.760;2023-07-08T09:21:16;99606.19;;;27.22;39.04
52719;BME280;38616;42.140;24.760;2023-07-08T09:23:43;99600.31;;;27.52;39.08
52719;BME280;38616;42.140;24.760;2023-07-08T09:26:16;99592.34;;;27.62;38.96
52719;BME280;38616;42.140;24.760;2023-07-08T09:28:44;99596.34;;;27.53;38.78
52719;BME280;38616;42.140;24.760;2023-07-08T09:31:21;99591.56;;;27.57;38.48
52719;BME280;38616;42.140;24.760;2023-07-08T09:33:47;99590.78;;;27.57;38.87
52719;BME280;38616;42.140;24.760;2023-07-08T09:36:16;99598.34;;;27.78;38.31
52719;BME280;38616;42.140;24.760;2023-07-08T09:38:41;99581.63;;;27.67;38.67
52719;BME280;38616;42.140;24.760;2023-07-08T09:41:07;99570.44;;;27.85;38.38
52719;BME280;38616;42.140;24.760;2023-07-08T09:43:37;99565.25;;;27.95;38.02
52719;BME280;38616;42.140;24.760;2023-07-08T09:46:03;99566.44;;;28.01;37.63
52719;BME280;38616;42.140;24.760;2023-07-08T09:48:29;99558.88;;;27.94;37.83
52719;BME280;38616;42.140;24.760;2023-07-08T09:50:58;99554.88;;;27.99;37.57
52719;BME280;38616;42.140;24.760;2023-07-08T09:53:23;99551.31;;;27.87;37.48
52719;BME280;38616;42.140;24.760;2023-07-08T09:55:49;99550.13;;;27.74;38.47
52719;BME280;38616;42.140;24.760;2023-07-08T09:58:23;99568.06;;;27.87;38.08
52719;BME280;38616;42.140;24.760;2023-07-08T10:00:54;99566.88;;;27.70;37.57
52719;BME280;38616;42.140;24.760;2023-07-08T10:03:22;99543.34;;;27.57;37.65
52719;BME280;38616;42.140;24.760;2023-07-08T10:05:48;99536.13;;;27.99;37.89
52719;BME280;38616;42.140;24.760;2023-07-08T10:08:18;99540.13;;;28.13;36.83
52719;BME280;38616;42.140;24.760;2023-07-08T10:10:45;99538.53;;;28.19;36.89
52719;BME280;38616;42.140;24.760;2023-07-08T10:15:56;99532.56;;;28.21;37.17
52719;BME280;38616;42.140;24.760;2023-07-08T10:18:24;99537.75;;;28.04;36.32
52719;BME280;38616;42.140;24.760;2023-07-08T10:20:59;99540.97;;;27.81;37.34
52719;BME280;38616;42.140;24.760;2023-07-08T10:26:08;99521.34;;;28.28;36.22
52719;BME280;38616;42.140;24.760;2023-07-08T10:28:45;99514.56;;;28.29;36.33
52719;BME280;38616;42.140;24.760;2023-07-08T10:34:10;99510.22;;;28.21;36.94
52719;BME280;38616;42.140;24.760;2023-07-08T10:36:46;99512.59;;;28.22;37.30
52719;BME280;38616;42.140;24.760;2023-07-08T10:39:19;99503.78;;;28.35;36.08
52719;BME280;38616;42.140;24.760;2023-07-08T10:47:10;99487.81;;;28.28;36.34
52719;BME280;38616;42.140;24.760;2023-07-08T10:49:49;99486.16;;;28.49;36.03
52719;BME280;38616;42.140;24.760;2023-07-08T10:55:17;99476.16;;;28.55;35.50
52719;BME280;38616;42.140;24.760;2023-07-08T10:57:59;99484.91;;;28.60;35.74
52719;BME280;38616;42.140;24.760;2023-07-08T11:01:10;99486.88;;;28.67;35.36
52719;BME280;38616;42.140;24.760;2023-07-08T11:06:18;99483.34;;;28.59;35.06
52719;BME280;38616;42.140;24.760;2023-07-08T11:08:53;99478.88;;;28.77;35.17
52719;BME280;38616;42.140;24.760;2023-07-08T11:11:36;99472.47;;;28.80;34.22
52719;BME280;38616;42.140;24.760;2023-07-08T11:14:13;99464.56;;;28.60;34.90
52719;BME280;38616;42.140;24.760;2023-07-08T11:16:50;99464.53;;;28.67;35.59
52719;BME280;38616;42.140;24.760;2023-07-08T11:19:19;99469.19;;;28.92;34.55
52719;BME280;38616;42.140;24.760;2023-07-08T11:21:49;99476.03;;;28.84;35.47
52719;BME280;38616;42.140;24.760;2023-07-08T11:29:48;99474.94;;;28.56;35.42
52719;BME280;38616;42.140;24.760;2023-07-08T11:32:16;99480.44;;;28.85;35.46
52719;BME280;38616;42.140;24.760;2023-07-08T11:34:44;99474.56;;;28.54;36.02
52719;BME280;38616;42.140;24.760;2023-07-08T11:37:12;99476.63;;;28.35;36.08
52719;BME280;38616;42.140;24.760;2023-07-08T11:39:42;99473.00;;;28.45;35.72
52719;BME280;38616;42.140;24.760;2023-07-08T11:44:43;99461.00;;;29.19;34.54
52719;BME280;38616;42.140;24.760;2023-07-08T11:47:19;99456.91;;;29.35;34.21
52719;BME280;38616;42.140;24.760;2023-07-08T11:49:46;99443.91;;;29.59;34.61
52719;BME280;38616;42.140;24.760;2023-07-08T11:52:14;99451.59;;;29.48;34.30
52719;BME280;38616;42.140;24.760;2023-07-08T11:54:43;99474.75;;;28.99;34.66
52719;BME280;38616;42.140;24.760;2023-07-08T11:57:23;99457.28;;;28.77;35.34
52719;BME280;38616;42.140;24.760;2023-07-08T11:59:55;99475.66;;;28.74;35.62
52719;BME280;38616;42.140;24.760;2023-07-08T12:02:30;99457.63;;;28.86;35.14
52719;BME280;38616;42.140;24.760;2023-07-08T12:05:12;99456.91;;;29.35;34.50
52719;BME280;38616;42.140;24.760;2023-07-08T12:07:42;99462.66;;;29.13;34.61
52719;BME280;38616;42.140;24.760;2023-07-08T12:10:16;99447.16;;;29.54;34.10
52719;BME280;38616;42.140;24.760;2023-07-08T12:12:43;99453.25;;;29.45;34.35
52719;BME280;38616;42.140;24.760;2023-07-08T12:17:34;99438.63;;;29.19;33.69
52719;BME280;38616;42.140;24.760;2023-07-08T12:20:00;99439.19;;;29.53;33.96
52719;BME280;38616;42.140;24.760;2023-07-08T12:22:28;99464.44;;;29.45;33.96
52719;BME280;38616;42.140;24.760;2023-07-08T12:24:53;99449.25;;;29.43;34.11
52719;BME280;38616;42.140;24.760;2023-07-08T12:27:21;99432.97;;;29.76;33.41
52719;BME280;38616;42.140;24.760;2023-07-08T12:29:46;99471.78;;;29.74;32.94
52719;BME280;38616;42.140;24.760;2023-07-08T12:32:12;99461.72;;;29.31;33.77
52719;BME280;38616;42.140;24.760;2023-07-08T12:34:38;99470.56;;;29.22;34.22
52719;BME280;38616;42.140;24.760;2023-07-08T12:37:04;99442.69;;;29.15;34.84
52719;BME280;38616;42.140;24.760;2023-07-08T12:39:32;99449.81;;;29.19;34.07
52719;BME280;38616;42.140;24.760;2023-07-08T12:42:00;99462.63;;;29.17;33.67
52719;BME280;38616;42.140;24.760;2023-07-08T12:44:26;99466.13;;;29.28;33.09
52719;BME280;38616;42.140;24.760;2023-07-08T12:46:52;99472.88;;;29.38;33.29
52719;BME280;38616;42.140;24.760;2023-07-08T12:49:17;99494.38;;;29.48;32.69
52719;BME280;38616;42.140;24.760;2023-07-08T12:51:45;99481.84;;;29.64;32.85
52719;BME280;38616;42.140;24.760;2023-07-08T12:54:12;99492.13;;;29.29;34.92
52719;BME280;38616;42.140;24.760;2023-07-08T12:56:38;99492.91;;;28.58;37.44
52719;BME280;38616;42.140;24.760;2023-07-08T12:59:03;99485.03;;;28.28;38.03
52719;BME280;38616;42.140;24.760;2023-07-08T13:01:29;99490.25;;;28.11;38.47
52719;BME280;38616;42.140;24.760;2023-07-08T13:03:58;99499.84;;;28.10;38.77
52719;BME280;38616;42.140;24.760;2023-07-08T13:06:31;99501.06;;;28.02;38.92
52719;BME280;38616;42.140;24.760;2023-07-08T13:09:03;99504.25;;;28.19;39.06
52719;BME280;38616;42.140;24.760;2023-07-08T13:11:30;99498.31;;;27.58;41.01
52719;BME280;38616;42.140;24.760;2023-07-08T13:13:57;99516.59;;;27.45;40.98
52719;BME280;38616;42.140;24.760;2023-07-08T13:16:25;99509.06;;;27.75;40.49
52719;BME280;38616;42.140;24.760;2023-07-08T13:18:53;99525.38;;;27.87;39.93
52719;BME280;38616;42.140;24.760;2023-07-08T13:21:19;99555.25;;;27.43;41.25
52719;BME280;38616;42.140;24.760;2023-07-08T13:23:44;99553.56;;;26.91;43.08
52719;BME280;38616;42.140;24.760;2023-07-08T13:26:12;99540.91;;;27.26;44.26
52719;BME280;38616;42.140;24.760;2023-07-08T13:28:38;99559.66;;;26.41;49.26